Archival Weather

Chicago O'Hare International

Chicago, Illinois (KORD)

Report from: Thursday, December 7, 2023 12:51 AM CST
Current time: Wednesday, April 24, 2024 1:44 PM CDT

Current weather – Weather history – Daily summaries
Weather forecast

Temperature3.9°C (39.0°F)
Wind chill-1.0°C (30.2°F)
Dew point-0.6°C (30.9°F)
Winds 14 kts (7.2 m/s, 16.1 mph) Southwest (220°)
Wind gusts 24 kts (12.3 m/s, 27.6 mph)
Peak wind 27 kts (13.9 m/s, 31.1 mph) South-Southwest (210°) at 06:10
Visibility10 mi. (16.1 km)
Clouds Scattered clouds 25,000 ft. (7,620 m)
Altimeter29.94 in.Hg (1014 mB)
Relative humidity72 %
Density altitude-1,291 ft. (-394 m)
Sea-level pressure101.4 kPa (1014 mB, 29.95 in.Hg)
Remarks Automated weather observing station with precipitation discriminator
Flight conditions Visual Meteorological Conditions
Raw dataKORD 070651Z 22014G24KT 10SM SCT250 04/M01 A2994 RMK AO2 PK WND 21027/0610 SLP143 T00391006
An error has occurred. This application may no longer respond until reloaded. Reload 🗙